createdAt,value
2019-04-20T00:00:17.031Z,61.1414
2019-04-20T00:01:05.221Z,56.9589
2019-04-20T00:01:52.709Z,55.9319
2019-04-20T00:02:44.062Z,60.3128
2019-04-20T00:03:39.050Z,59.6002
2019-04-20T00:04:29.006Z,58.9670
2019-04-20T00:05:17.130Z,57.7188
2019-04-20T00:06:03.586Z,58.4649
2019-04-20T00:06:52.827Z,58.5977
2019-04-20T00:07:41.832Z,56.9635
2019-04-20T00:08:32.805Z,54.3725
2019-04-20T00:09:24.692Z,53.6446
2019-04-20T00:10:16.993Z,53.4569
2019-04-20T00:11:10.673Z,56.3043
2019-04-20T00:12:03.876Z,56.2570
2019-04-20T00:12:59.708Z,58.0011
2019-04-20T00:13:48.720Z,61.2146
2019-04-20T00:14:33.800Z,61.6739
2019-04-20T00:15:22.138Z,58.9120
2019-04-20T00:16:08.552Z,59.4339
2019-04-20T00:16:55.054Z,59.5087
2019-04-20T00:17:50.842Z,59.8321
2019-04-20T00:18:41.296Z,60.3174
2019-04-20T00:19:32.227Z,59.3973
2019-04-20T00:20:23.516Z,59.0234
2019-04-20T00:21:12.596Z,57.2152
2019-04-20T00:22:06.227Z,59.2691
2019-04-20T00:22:54.099Z,61.7823
2019-04-20T00:23:45.203Z,59.7604
2019-04-20T00:24:36.918Z,64.0208
2019-04-20T00:25:38.614Z,66.1601
2019-04-20T00:26:32.306Z,67.3411
2019-04-20T00:27:32.870Z,65.7191
2019-04-20T00:28:19.482Z,62.5299
2019-04-20T00:29:14.341Z,62.0996
2019-04-20T00:29:58.711Z,61.1292
2019-04-20T00:30:53.323Z,61.4725
2019-04-20T00:31:43.069Z,62.8367
2019-04-20T00:32:39.683Z,65.9388
2019-04-20T00:33:27.110Z,66.3432
2019-04-20T00:34:11.969Z,61.7380
2019-04-20T00:34:55.886Z,59.9207
2019-04-20T00:35:42.269Z,59.6506
2019-04-20T00:36:29.090Z,60.1892
2019-04-20T00:37:16.993Z,63.1006
2019-04-20T00:38:03.460Z,61.1368
2019-04-20T00:38:50.042Z,62.6566
2019-04-20T00:39:36.019Z,62.3194
2019-04-20T00:40:23.686Z,62.7039
2019-04-20T00:41:13.684Z,62.0905
2019-04-20T00:42:06.559Z,59.2935
2019-04-20T00:42:57.963Z,58.3780
2019-04-20T00:43:47.183Z,62.9633
2019-04-20T00:44:38.105Z,62.5940
2019-04-20T00:45:30.568Z,61.6724
2019-04-20T00:46:26.434Z,59.4385
2019-04-20T00:47:22.967Z,59.3515
2019-04-20T00:48:07.985Z,58.9349
2019-04-20T00:49:01.641Z,58.1262
2019-04-20T00:49:58.028Z,56.7071
2019-04-20T00:50:48.722Z,55.4986
2019-04-20T00:51:45.551Z,55.9457
2019-04-20T00:52:33.125Z,56.8063
2019-04-20T00:53:20.410Z,56.5423
2019-04-20T00:54:03.993Z,56.6690
2019-04-20T00:54:51.803Z,57.5677
2019-04-20T00:55:38.130Z,56.1303
2019-04-20T00:56:24.560Z,54.5830
2019-04-20T00:57:20.336Z,54.0826
2019-04-20T00:58:13.309Z,55.1232
2019-04-20T00:59:12.010Z,57.0260
2019-04-20T01:00:09.287Z,58.3444
2019-04-20T01:01:04.089Z,57.2473
2019-04-20T01:01:47.578Z,56.0876
2019-04-20T01:02:37.106Z,54.8760
2019-04-20T01:03:29.213Z,54.1115
2019-04-20T01:04:20.304Z,54.8211
2019-04-20T01:05:11.016Z,54.9111
2019-04-20T01:06:09.717Z,55.4742
2019-04-20T01:06:53.908Z,58.0606
2019-04-20T01:07:39.522Z,60.7202
2019-04-20T01:08:23.366Z,56.0113
2019-04-20T01:09:09.967Z,58.7427
2019-04-20T01:09:56.379Z,58.0468
2019-04-20T01:10:47.224Z,54.8470
2019-04-20T01:11:39.797Z,61.8341
2019-04-20T01:12:31.406Z,60.7752
2019-04-20T01:13:22.849Z,54.7143
2019-04-20T01:14:12.823Z,60.4364
2019-04-20T01:15:05.875Z,61.2528
2019-04-20T01:16:01.003Z,58.8540
2019-04-20T01:16:52.930Z,55.9197
2019-04-20T01:17:37.969Z,55.4849
2019-04-20T01:18:27.837Z,55.6085
2019-04-20T01:19:15.818Z,54.0520
2019-04-20T01:20:04.518Z,59.4568
2019-04-20T01:20:51.497Z,59.8566
2019-04-20T01:21:38.362Z,60.1801
2019-04-20T01:22:28.362Z,60.3098
2019-04-20T01:23:19.417Z,59.4247
2019-04-20T01:24:08.842Z,57.1740
2019-04-20T01:25:06.582Z,59.9710
2019-04-20T01:25:55.824Z,62.1942
2019-04-20T01:26:43.688Z,62.5711
2019-04-20T01:27:51.521Z,61.6693
2019-04-20T01:28:37.300Z,64.1993
2019-04-20T01:29:26.152Z,61.8433
2019-04-20T01:30:17.422Z,58.3490
2019-04-20T01:31:16.599Z,58.2300
2019-04-20T01:32:06.160Z,59.8184
2019-04-20T01:33:12.495Z,56.0052
2019-04-20T01:33:46.154Z,60.7446
2019-04-20T01:34:41.414Z,62.0127
2019-04-20T01:35:35.614Z,61.4542
2019-04-20T01:36:32.995Z,62.5711
2019-04-20T01:37:17.908Z,64.1031
2019-04-20T01:38:11.290Z,64.4648
2019-04-20T01:38:59.918Z,66.7598
2019-04-20T01:39:43.191Z,62.9969
2019-04-20T01:40:27.852Z,62.3835
2019-04-20T01:41:16.127Z,64.3244
2019-04-20T01:42:04.469Z,64.0406
2019-04-20T01:42:51.275Z,58.5657
2019-04-20T01:43:37.599Z,57.4975
2019-04-20T01:44:31.728Z,62.4475
2019-04-20T01:45:23.498Z,57.8729
2019-04-20T01:46:14.692Z,62.2278
2019-04-20T01:47:03.162Z,63.3585
2019-04-20T01:47:55.868Z,63.9338
2019-04-20T01:48:44.620Z,64.8127
2019-04-20T01:49:33.925Z,63.8071
2019-04-20T01:50:27.584Z,62.8580
2019-04-20T01:51:21.212Z,64.2908
2019-04-20T01:52:16.285Z,64.3046
2019-04-20T01:53:09.979Z,63.6316
2019-04-20T01:55:10.245Z,65.9525
2019-04-20T01:55:53.054Z,67.1290
2019-04-20T01:56:40.470Z,68.8884
2019-04-20T01:57:26.162Z,60.7263
2019-04-20T01:58:30.204Z,63.8285
2019-04-20T01:59:16.373Z,62.7680
2019-04-20T02:00:05.313Z,64.0085
2019-04-20T02:00:48.109Z,67.4678
2019-04-20T02:01:40.549Z,64.8692
2019-04-20T02:02:29.569Z,64.0574
2019-04-20T02:03:17.191Z,60.1663
2019-04-20T02:04:05.501Z,61.9715
2019-04-20T02:04:58.861Z,61.0178
2019-04-20T02:05:53.031Z,61.5091
2019-04-20T02:06:44.381Z,65.2064
2019-04-20T02:07:35.491Z,69.5460
2019-04-20T02:08:24.315Z,69.2729
2019-04-20T02:09:18.660Z,69.9733
2019-04-20T02:10:08.314Z,71.0674
2019-04-20T02:10:59.218Z,68.8472
2019-04-20T02:11:51.791Z,61.7823
2019-04-20T02:12:40.866Z,62.0478
2019-04-20T02:13:36.165Z,63.3570
2019-04-20T02:14:28.705Z,65.1484
2019-04-20T02:15:22.127Z,68.4291
2019-04-20T02:16:14.497Z,69.2393
2019-04-20T02:17:08.645Z,63.1708
2019-04-20T02:18:03.346Z,61.0468
2019-04-20T02:18:53.856Z,62.7802
2019-04-20T02:19:52.428Z,58.4634
2019-04-20T02:20:45.865Z,66.8956
2019-04-20T02:21:34.283Z,64.5518
2019-04-20T02:22:26.222Z,64.3839
2019-04-20T02:23:10.585Z,63.2975
2019-04-20T02:23:57.353Z,63.8468
2019-04-20T02:24:42.615Z,62.8824
2019-04-20T02:25:29.139Z,62.6581
2019-04-20T02:26:15.986Z,64.2237
2019-04-20T02:27:02.389Z,60.6622
2019-04-20T02:27:54.946Z,56.0021
2019-04-20T02:29:07.708Z,62.8367
2019-04-20T02:29:50.259Z,60.9995
2019-04-20T02:31:23.090Z,64.1581
2019-04-20T02:32:06.648Z,61.9883
2019-04-20T02:32:36.273Z,65.7938
2019-04-20T02:33:42.464Z,68.8151
2019-04-20T02:34:28.513Z,64.3503
2019-04-20T02:35:36.712Z,69.8802
2019-04-20T02:36:20.858Z,70.0465
2019-04-20T02:37:08.879Z,66.2135
2019-04-20T02:39:05.193Z,68.9479
2019-04-20T02:40:47.535Z,66.2913
2019-04-20T02:41:18.120Z,71.0750
2019-04-20T02:44:09.886Z,70.6416
2019-04-20T02:44:50.023Z,69.9260
2019-04-20T02:46:34.629Z,70.7088
2019-04-20T02:47:35.046Z,70.1610
2019-04-20T02:48:14.062Z,68.1315
2019-04-20T02:49:10.120Z,69.0028
2019-04-20T02:49:59.180Z,72.0287
2019-04-20T02:50:50.191Z,71.1589
2019-04-20T02:51:47.623Z,73.3150
2019-04-20T02:52:38.217Z,71.3909
2019-04-20T02:53:33.029Z,66.0304
2019-04-20T02:55:14.515Z,68.3619
2019-04-20T02:56:06.606Z,67.8111
2019-04-20T02:57:00.659Z,75.1507
2019-04-20T02:58:41.961Z,73.3318
2019-04-20T03:01:07.078Z,73.3516
2019-04-20T03:01:53.491Z,74.8745
2019-04-20T03:02:41.189Z,76.9238
2019-04-20T03:03:26.738Z,76.2417
2019-04-20T03:04:20.286Z,73.6019
2019-04-20T03:05:13.676Z,71.9036
2019-04-20T03:06:04.452Z,71.3970
2019-04-20T03:06:59.392Z,67.5471
2019-04-20T03:07:57.616Z,69.2851
2019-04-20T03:08:47.573Z,72.5444
2019-04-20T03:09:39.986Z,72.6772
2019-04-20T03:10:34.278Z,74.9722
2019-04-20T03:11:32.496Z,74.2718
2019-04-20T03:12:18.742Z,69.1997
2019-04-20T03:13:09.803Z,74.6197
2019-04-20T03:13:57.816Z,70.5074
2019-04-20T03:14:44.742Z,67.5135
2019-04-20T03:15:41.805Z,67.0665
2019-04-20T03:16:31.661Z,65.9068
2019-04-20T03:17:27.262Z,70.2739
2019-04-20T03:18:13.882Z,68.8151
2019-04-20T03:19:03.053Z,68.9845
2019-04-20T03:19:52.539Z,67.0375
2019-04-20T03:20:53.423Z,75.5505
2019-04-20T03:21:47.948Z,71.4839
2019-04-20T03:23:01.068Z,69.7169
2019-04-20T03:23:31.168Z,64.9195
2019-04-20T03:24:26.591Z,69.4835
2019-04-20T03:25:13.540Z,65.4627
2019-04-20T03:26:05.389Z,66.2379
2019-04-20T03:26:54.646Z,65.3498
2019-04-20T03:27:41.451Z,65.5879
2019-04-20T03:28:36.811Z,68.6137
2019-04-20T03:29:23.794Z,64.1489
2019-04-20T03:31:07.458Z,67.8859
2019-04-20T03:33:12.637Z,60.6424
2019-04-20T03:34:13.373Z,64.0848
2019-04-20T03:35:00.834Z,62.6337
2019-04-20T03:35:34.255Z,61.3703
2019-04-20T03:36:34.972Z,64.7074
2019-04-20T03:37:26.734Z,65.2766
2019-04-20T03:38:10.665Z,60.9720
2019-04-20T03:38:57.393Z,61.0773
2019-04-20T03:39:51.434Z,62.2370
2019-04-20T03:40:37.332Z,64.5441
2019-04-20T03:41:25.485Z,62.2827
2019-04-20T03:42:09.337Z,60.4105
2019-04-20T03:42:56.984Z,64.5151
2019-04-20T03:43:45.684Z,61.4115
2019-04-20T03:44:34.202Z,68.1956
2019-04-20T03:45:25.412Z,64.2512
2019-04-20T03:46:17.427Z,66.2913
2019-04-20T03:47:08.799Z,69.5964
2019-04-20T03:48:11.588Z,67.6707
2019-04-20T03:49:05.899Z,68.2231
2019-04-20T03:50:02.631Z,65.7923
2019-04-20T03:50:53.272Z,64.2191
2019-04-20T03:51:46.967Z,61.6602
2019-04-20T03:52:34.273Z,61.0605
2019-04-20T03:53:29.806Z,60.6989
2019-04-20T03:54:13.537Z,61.1688
2019-04-20T03:55:12.836Z,58.8952
2019-04-20T03:55:58.448Z,58.9685
2019-04-20T03:56:49.579Z,60.4364
2019-04-20T03:57:49.790Z,62.2003
2019-04-20T03:58:33.521Z,65.9495
2019-04-20T03:59:21.268Z,60.0061
2019-04-20T04:00:16.304Z,64.6342
2019-04-20T04:01:12.641Z,64.9271
2019-04-20T04:03:09.352Z,66.4836
2019-04-20T04:03:53.262Z,59.9100
2019-04-20T04:04:39.074Z,60.4059
2019-04-20T04:05:27.534Z,59.3301
2019-04-20T04:06:12.923Z,66.2379
2019-04-20T04:06:57.735Z,59.2111
2019-04-20T04:07:55.872Z,65.4582
2019-04-20T04:08:36.431Z,56.8673
2019-04-20T04:09:30.538Z,60.0198
2019-04-20T04:10:25.892Z,58.0468
2019-04-20T04:11:21.857Z,64.4739
2019-04-20T04:12:10.110Z,62.5711
2019-04-20T04:12:49.830Z,58.3551
2019-04-20T04:13:39.762Z,61.1231
2019-04-20T04:14:26.145Z,59.2508
2019-04-20T04:15:12.709Z,59.0417
2019-04-20T04:16:06.107Z,60.8408
2019-04-20T04:16:54.721Z,63.8575
2019-04-20T04:17:44.995Z,53.8689
2019-04-20T04:18:39.483Z,56.3714
2019-04-20T04:19:30.236Z,57.0901
2019-04-20T04:20:19.711Z,55.3368
2019-04-20T04:21:12.885Z,57.1237
2019-04-20T04:22:12.619Z,60.6790
2019-04-20T04:23:10.479Z,60.8774
2019-04-20T04:23:58.792Z,60.2640
2019-04-20T04:24:52.177Z,60.1480
2019-04-20T04:25:42.743Z,61.8616
2019-04-20T04:26:34.163Z,57.8286
2019-04-20T04:27:33.598Z,60.3677
2019-04-20T04:28:13.767Z,61.2940
2019-04-20T04:29:13.559Z,53.6202
2019-04-20T04:30:04.306Z,55.1553
2019-04-20T04:30:58.132Z,55.7549
2019-04-20T04:31:59.538Z,54.2306
2019-04-20T04:33:03.101Z,64.6998
2019-04-20T04:34:22.914Z,64.4053
2019-04-20T04:35:10.623Z,64.2542
2019-04-20T04:36:00.372Z,63.0426
2019-04-20T04:36:59.347Z,63.4256
2019-04-20T04:37:47.118Z,63.5096
2019-04-20T04:38:42.464Z,60.5417
2019-04-20T04:39:30.920Z,62.4292
2019-04-20T04:40:36.979Z,61.3031
2019-04-20T04:41:27.086Z,64.3549
2019-04-20T04:42:11.572Z,60.0793
2019-04-20T04:42:57.891Z,69.3950
2019-04-20T04:43:49.445Z,65.7114
2019-04-20T04:44:34.333Z,61.8280
2019-04-20T04:45:15.509Z,61.8479
2019-04-20T04:46:04.219Z,62.8733
2019-04-20T04:46:57.586Z,60.7263
2019-04-20T04:47:42.908Z,63.2425
2019-04-20T04:48:35.010Z,70.0053
2019-04-20T04:49:28.440Z,60.6577
2019-04-20T04:50:17.566Z,68.0415
2019-04-20T04:51:12.880Z,59.8428
2019-04-20T04:52:05.197Z,60.7111
2019-04-20T04:52:58.848Z,61.6510
2019-04-20T04:53:47.955Z,61.2558
2019-04-20T04:54:42.281Z,60.0076
2019-04-20T04:55:34.810Z,59.6033
2019-04-20T04:56:18.065Z,64.8280
2019-04-20T04:57:05.339Z,63.6240
2019-04-20T04:57:51.601Z,61.6419
2019-04-20T04:58:38.491Z,67.1107
2019-04-20T04:59:25.690Z,70.6722
2019-04-20T05:00:17.939Z,67.4052
2019-04-20T05:01:08.080Z,66.7598
2019-04-20T05:01:58.152Z,64.5762
2019-04-20T05:02:50.592Z,63.0106
2019-04-20T05:04:48.531Z,63.2288
2019-04-20T05:05:35.964Z,67.9484
2019-04-20T05:06:29.221Z,60.4730
2019-04-20T05:07:15.190Z,65.7053
2019-04-20T05:08:02.748Z,61.3382
2019-04-20T05:08:51.445Z,62.0356
2019-04-20T05:09:39.846Z,66.0136
2019-04-20T05:10:28.677Z,60.6744
2019-04-20T05:11:15.310Z,63.0747
2019-04-20T05:12:07.247Z,63.2059
2019-04-20T05:12:54.782Z,61.3626
2019-04-20T05:13:50.053Z,57.6623
2019-04-20T05:14:46.060Z,59.9939
2019-04-20T05:15:41.734Z,59.9008
2019-04-20T05:16:39.830Z,60.9873
2019-04-20T05:17:32.392Z,65.0828
2019-04-20T05:18:19.484Z,67.0436
2019-04-20T05:19:15.890Z,68.1132
2019-04-20T05:20:02.594Z,68.4474
2019-04-20T05:21:00.312Z,68.7221
2019-04-20T05:21:57.439Z,69.9504
2019-04-20T05:22:41.662Z,68.5939
2019-04-20T05:23:24.308Z,72.4681
2019-04-20T05:24:20.768Z,73.4249
2019-04-20T05:25:11.928Z,75.3628
2019-04-20T05:26:08.488Z,75.3536
2019-04-20T05:27:01.738Z,77.4395
2019-04-20T05:27:51.871Z,77.6196
2019-04-20T05:28:33.435Z,76.7620
2019-04-20T05:29:19.688Z,73.6751
2019-04-20T05:30:05.695Z,74.4076
2019-04-20T05:30:57.622Z,69.5277
2019-04-20T05:31:49.391Z,75.7244
2019-04-20T05:32:44.596Z,76.7941
2019-04-20T05:33:42.320Z,79.1943
2019-04-20T05:34:40.056Z,78.7823
2019-04-20T05:35:33.636Z,74.6197
2019-04-20T05:36:19.302Z,74.0734
2019-04-20T05:37:20.943Z,72.6970
2019-04-20T05:38:11.923Z,73.8354
2019-04-20T05:38:58.223Z,73.2540
2019-04-20T05:39:50.122Z,71.4000
2019-04-20T05:40:39.026Z,70.8644
2019-04-20T05:41:29.462Z,75.5535
2019-04-20T05:42:23.434Z,74.9065
2019-04-20T05:43:10.674Z,75.5322
2019-04-20T05:44:02.107Z,77.8286
2019-04-20T05:44:55.936Z,80.1221
2019-04-20T05:45:45.345Z,81.0880
2019-04-20T05:46:40.940Z,82.4247
2019-04-20T05:47:33.460Z,80.5570
2019-04-20T05:48:19.701Z,81.1429
2019-04-20T05:49:20.683Z,80.2594
2019-04-20T05:50:01.013Z,78.9960
2019-04-20T05:50:58.729Z,76.4828
2019-04-20T05:51:49.905Z,79.0921
2019-04-20T05:52:50.207Z,77.9355
2019-04-20T05:53:33.973Z,77.6593
2019-04-20T05:54:31.096Z,76.0433
2019-04-20T05:55:20.921Z,78.1079
2019-04-20T05:56:07.296Z,74.7158
2019-04-20T05:57:07.744Z,78.8647
2019-04-20T05:58:00.707Z,78.5031
2019-04-20T05:58:45.050Z,77.9950
2019-04-20T05:59:45.412Z,77.0932
2019-04-20T06:00:33.561Z,77.2473
2019-04-20T06:01:20.224Z,77.2900
2019-04-20T06:02:15.998Z,77.1344
2019-04-20T06:03:01.724Z,77.3159
2019-04-20T06:03:53.873Z,77.3495
2019-04-20T06:05:01.799Z,77.6745
2019-04-20T06:05:48.877Z,76.1868
2019-04-20T06:06:33.147Z,76.7758
2019-04-20T06:07:25.205Z,75.1659
2019-04-20T06:08:15.601Z,76.6033
2019-04-20T06:09:11.074Z,77.2198
2019-04-20T06:09:59.671Z,76.4614
2019-04-20T06:10:52.146Z,76.4981
2019-04-20T06:11:44.211Z,75.3170
2019-04-20T06:12:35.751Z,76.3836
2019-04-20T06:13:17.362Z,76.7727
2019-04-20T06:14:07.034Z,75.6359
2019-04-20T06:15:05.585Z,75.4543
2019-04-20T06:15:53.958Z,77.5082
2019-04-20T06:16:56.929Z,77.5097
2019-04-20T06:17:46.199Z,75.6832
2019-04-20T06:18:32.736Z,76.3912
2019-04-20T06:19:39.548Z,77.8561
2019-04-20T06:20:21.538Z,79.2493
2019-04-20T06:21:23.509Z,74.9126
2019-04-20T06:22:04.695Z,74.3267
2019-04-20T06:23:01.346Z,76.3775
2019-04-20T06:23:53.202Z,74.8623
2019-04-20T06:24:44.904Z,74.5968
2019-04-20T06:25:54.818Z,76.0861
2019-04-20T06:27:11.044Z,73.9269
2019-04-20T06:28:02.066Z,74.0337
2019-04-20T06:28:49.012Z,73.8872
2019-04-20T06:29:48.360Z,76.7758
2019-04-20T06:30:30.893Z,74.6517
2019-04-20T06:31:34.182Z,73.9635
2019-04-20T06:32:21.487Z,75.8145
2019-04-20T06:33:26.267Z,76.4233
2019-04-20T06:34:20.136Z,74.1741
2019-04-20T06:35:00.546Z,78.1903
2019-04-20T06:36:48.589Z,62.4704
2019-04-20T06:37:36.268Z,68.3619
2019-04-20T06:38:46.833Z,69.8482
2019-04-20T06:39:20.301Z,58.2040
2019-04-20T06:40:31.977Z,64.3519
2019-04-20T06:41:16.507Z,70.7866
2019-04-20T06:42:08.429Z,61.0773
2019-04-20T06:42:39.708Z,72.5185
2019-04-20T06:43:40.982Z,67.4006
2019-04-20T06:44:32.260Z,61.4038
2019-04-20T06:45:27.719Z,70.6325
2019-04-20T06:46:20.244Z,72.6650
2019-04-20T06:48:01.035Z,62.4048
2019-04-20T06:48:59.248Z,73.1182
2019-04-20T06:49:36.816Z,70.5821
2019-04-20T06:50:29.159Z,68.4352
2019-04-20T06:51:23.364Z,64.1917
2019-04-20T06:52:23.145Z,67.7577
2019-04-20T06:53:12.925Z,67.1031
2019-04-20T06:53:49.645Z,71.3405
2019-04-20T06:54:48.726Z,76.2737
2019-04-20T06:55:43.006Z,71.9493
2019-04-20T06:56:29.403Z,63.6561
2019-04-20T06:57:25.580Z,73.5027
2019-04-20T06:58:31.903Z,72.0928
2019-04-20T06:59:12.523Z,61.4023
2019-04-20T07:00:01.220Z,57.7539
2019-04-20T07:00:46.462Z,59.4293
2019-04-20T07:01:48.969Z,58.1842
2019-04-20T07:02:38.650Z,58.3963
2019-04-20T07:03:36.079Z,59.0585
2019-04-20T07:04:33.533Z,60.0702
2019-04-20T07:05:18.965Z,60.5066
2019-04-20T07:06:16.854Z,62.8809
2019-04-20T07:06:56.588Z,63.0472
2019-04-20T07:07:43.352Z,61.0193
2019-04-20T07:08:56.647Z,57.2961
2019-04-20T07:09:31.124Z,61.5671
2019-04-20T07:10:19.515Z,57.6394
2019-04-20T07:11:11.358Z,57.4151
2019-04-20T07:11:59.499Z,58.9593
2019-04-20T07:12:46.960Z,64.4465
2019-04-20T07:13:37.405Z,56.3409
2019-04-20T07:14:19.128Z,57.5570
2019-04-20T07:15:16.316Z,58.3505
2019-04-20T07:16:15.836Z,56.5133
2019-04-20T07:17:10.733Z,57.3831
2019-04-20T07:17:57.023Z,55.1644
2019-04-20T07:18:50.922Z,52.4987
2019-04-20T07:19:36.254Z,55.2468
2019-04-20T07:20:27.813Z,61.5732
2019-04-20T07:21:37.502Z,60.0244
2019-04-20T07:22:25.296Z,54.2855
2019-04-20T07:23:18.432Z,59.8230
2019-04-20T07:24:03.564Z,60.9049
2019-04-20T07:24:54.796Z,56.6522
2019-04-20T07:25:42.228Z,58.0377
2019-04-20T07:26:37.270Z,53.1304
2019-04-20T07:27:23.965Z,55.3048
2019-04-20T07:28:19.697Z,52.8054
2019-04-20T07:29:13.592Z,56.3180
2019-04-20T07:29:58.952Z,53.2860
2019-04-20T07:30:45.406Z,56.4508
2019-04-20T07:31:39.347Z,52.5719
2019-04-20T07:32:38.781Z,60.9171
2019-04-20T07:33:28.348Z,54.3175
2019-04-20T07:34:15.836Z,53.2082
2019-04-20T07:35:09.817Z,53.9513
2019-04-20T07:35:56.218Z,52.9519
2019-04-20T07:37:04.856Z,53.4234
2019-04-20T07:38:41.834Z,55.1995
2019-04-20T07:39:28.079Z,54.3862
2019-04-20T07:40:23.170Z,55.2911
2019-04-20T07:41:12.938Z,54.4121
2019-04-20T07:42:10.787Z,54.0978
2019-04-20T07:42:57.179Z,54.6319
2019-04-20T07:43:52.918Z,55.3323
2019-04-20T07:44:42.553Z,58.2483
2019-04-20T07:45:30.861Z,53.6080
2019-04-20T07:46:37.541Z,54.1848
2019-04-20T07:47:23.713Z,53.7209
2019-04-20T07:48:54.303Z,54.1970
2019-04-20T07:49:46.991Z,56.6094
2019-04-20T07:50:32.245Z,54.2840
2019-04-20T07:51:17.347Z,55.7443
2019-04-20T07:52:01.658Z,53.2830
2019-04-20T07:53:01.510Z,55.4009
2019-04-20T07:53:59.503Z,55.3521
2019-04-20T07:55:12.179Z,54.7784
2019-04-20T07:55:58.128Z,54.2885
2019-04-20T07:56:37.659Z,55.6527
2019-04-20T07:57:26.694Z,56.7605
2019-04-20T07:58:13.323Z,59.3530
2019-04-20T07:58:55.220Z,56.4004
2019-04-20T08:00:01.141Z,54.4686
2019-04-20T08:01:02.551Z,54.8013
2019-04-20T08:01:56.123Z,55.2041
2019-04-20T08:02:45.058Z,55.1736
2019-04-20T08:03:33.783Z,55.6313
2019-04-20T08:04:20.873Z,55.5535
2019-04-20T08:05:08.491Z,55.2377
2019-04-20T08:05:57.269Z,55.2956
2019-04-20T08:06:45.434Z,55.2651
2019-04-20T08:07:39.167Z,55.0347
2019-04-20T08:08:32.661Z,54.9203
2019-04-20T08:09:21.989Z,55.4009
2019-04-20T08:10:06.368Z,53.7774
2019-04-20T08:11:12.362Z,55.3201
2019-04-20T08:12:14.199Z,54.1512
2019-04-20T08:13:02.239Z,58.7930
2019-04-20T08:13:51.211Z,54.0871
2019-04-20T08:14:46.801Z,58.3444
2019-04-20T08:15:42.742Z,55.1507
2019-04-20T08:16:33.595Z,53.9742
2019-04-20T08:17:21.317Z,53.5470
2019-04-20T08:18:08.845Z,54.8150
2019-04-20T08:18:59.469Z,54.4503
2019-04-20T08:19:48.483Z,54.9905
2019-04-20T08:20:41.572Z,58.0301
2019-04-20T08:21:35.174Z,54.7967
2019-04-20T08:22:26.758Z,53.9818
2019-04-20T08:23:17.217Z,53.3288
2019-04-20T08:24:57.681Z,53.8994
2019-04-20T08:25:44.561Z,53.7408
2019-04-20T08:26:31.099Z,53.7591
2019-04-20T08:27:17.941Z,54.4686
2019-04-20T08:28:13.560Z,55.0851
2019-04-20T08:29:03.347Z,53.5286
2019-04-20T08:29:59.022Z,52.5536
2019-04-20T08:30:58.236Z,52.0089
2019-04-20T08:31:46.233Z,53.5576
2019-04-20T08:33:35.017Z,51.3146
2019-04-20T08:34:33.640Z,50.1961
2019-04-20T08:35:23.919Z,54.2031
2019-04-20T08:36:11.872Z,51.7342
2019-04-20T08:37:01.407Z,51.1574
2019-04-20T08:38:14.885Z,51.4046
2019-04-20T08:39:45.122Z,55.5718
2019-04-20T08:40:31.408Z,51.0765
2019-04-20T08:41:17.939Z,51.8593
2019-04-20T08:42:10.192Z,53.1136
2019-04-20T08:43:11.929Z,53.9406
2019-04-20T08:45:04.174Z,50.3655
2019-04-20T08:45:41.702Z,51.6808
2019-04-20T08:46:34.415Z,50.5867
2019-04-20T08:47:27.385Z,50.7042
2019-04-20T08:48:17.337Z,49.2531
2019-04-20T08:49:08.374Z,50.0587
2019-04-20T08:50:03.811Z,49.1997
2019-04-20T08:50:50.667Z,49.1722
2019-04-20T08:52:55.634Z,51.0063
2019-04-20T08:53:27.637Z,50.3624
2019-04-20T08:54:14.127Z,48.5542
2019-04-20T08:55:04.974Z,50.0694
2019-04-20T08:55:50.091Z,49.1249
2019-04-20T08:56:36.001Z,51.9173
2019-04-20T08:57:13.410Z,49.4270
2019-04-20T08:58:00.012Z,48.2231
2019-04-20T08:58:46.382Z,48.7099
2019-04-20T08:59:35.052Z,52.5734
2019-04-20T09:00:29.311Z,48.9296
2019-04-20T09:01:20.226Z,53.8277
2019-04-20T09:02:09.013Z,47.7256
2019-04-20T09:03:06.737Z,48.6351
2019-04-20T09:04:00.199Z,48.2322
2019-04-20T09:04:49.037Z,48.6183
2019-04-20T09:05:42.464Z,50.6127
2019-04-20T09:06:36.463Z,50.3761
2019-04-20T09:07:20.234Z,47.5380
2019-04-20T09:08:14.632Z,48.2017
2019-04-20T09:09:20.704Z,48.0003
2019-04-20T09:10:16.646Z,46.5217
2019-04-20T09:11:04.237Z,49.7215
2019-04-20T09:11:54.282Z,48.7327
2019-04-20T09:12:40.792Z,47.1061
2019-04-20T09:13:26.954Z,46.8269
2019-04-20T09:14:09.345Z,46.3783
2019-04-20T09:14:57.327Z,45.8244
2019-04-20T09:15:44.736Z,46.3920
2019-04-20T09:16:40.901Z,45.2384
2019-04-20T09:17:27.218Z,47.7943
2019-04-20T09:18:22.052Z,45.0736
2019-04-20T09:19:09.411Z,46.3050
2019-04-20T09:20:04.710Z,46.3798
2019-04-20T09:20:55.841Z,46.2043
2019-04-20T09:21:48.302Z,49.5933
2019-04-20T09:22:40.879Z,47.0329
2019-04-20T09:23:36.568Z,44.9790
2019-04-20T09:24:38.175Z,44.7135
2019-04-20T09:25:46.867Z,44.8447
2019-04-20T09:26:16.182Z,46.9062
2019-04-20T09:27:04.541Z,45.5650
2019-04-20T09:27:50.188Z,47.1748
2019-04-20T09:28:40.546Z,43.4165
2019-04-20T09:29:35.750Z,43.9429
2019-04-20T09:30:30.621Z,47.2572
2019-04-20T09:31:22.651Z,46.1173
2019-04-20T09:32:20.898Z,49.7658
2019-04-20T09:33:09.844Z,43.0930
2019-04-20T09:34:01.517Z,44.7303
2019-04-20T09:34:54.342Z,46.2837
2019-04-20T09:35:45.880Z,43.1800
2019-04-20T09:36:35.289Z,45.2750
2019-04-20T09:37:27.893Z,43.2563
2019-04-20T09:38:15.512Z,43.9582
2019-04-20T09:39:01.083Z,44.1077
2019-04-20T09:40:10.935Z,43.1922
2019-04-20T09:40:50.771Z,45.5650
2019-04-20T09:41:50.784Z,42.9633
2019-04-20T09:42:18.327Z,41.7960
2019-04-20T09:43:04.707Z,44.4556
2019-04-20T09:43:52.480Z,41.7197
2019-04-20T09:44:42.669Z,43.6790
2019-04-20T09:45:38.200Z,41.2757
2019-04-20T09:46:24.277Z,42.1088
2019-04-20T09:47:12.340Z,43.0106
2019-04-20T09:48:00.561Z,44.0177
2019-04-20T09:48:55.702Z,42.8946
2019-04-20T09:49:54.127Z,42.2538
2019-04-20T09:50:56.101Z,43.2242
2019-04-20T09:51:40.070Z,43.0426
2019-04-20T09:52:29.110Z,43.6042
2019-04-20T09:53:24.808Z,43.9933
2019-04-20T09:54:18.630Z,43.5630
2019-04-20T09:55:07.842Z,41.8830
2019-04-20T09:56:01.928Z,40.8530
2019-04-20T09:56:55.593Z,45.3498
2019-04-20T09:57:46.709Z,41.7655
2019-04-20T09:58:31.638Z,41.9577
2019-04-20T09:59:28.387Z,41.5305
2019-04-20T10:00:19.319Z,44.6616
2019-04-20T10:01:08.423Z,41.4771
2019-04-20T10:01:50.814Z,45.2720
2019-04-20T10:02:39.415Z,48.0812
2019-04-20T10:03:27.162Z,42.6978
2019-04-20T10:04:13.276Z,41.8112
2019-04-20T10:05:00.279Z,40.7858
2019-04-20T10:05:47.602Z,40.4318
2019-04-20T10:06:36.146Z,41.3657
2019-04-20T10:07:26.152Z,41.6129
2019-04-20T10:08:15.421Z,42.4826
2019-04-20T10:09:03.865Z,41.1872
2019-04-20T10:09:52.078Z,39.1562
2019-04-20T10:10:42.665Z,40.7401
2019-04-20T10:11:31.840Z,38.3001
2019-04-20T10:12:19.641Z,41.9333
2019-04-20T10:13:07.347Z,39.0585
2019-04-20T10:13:54.383Z,40.6027
2019-04-20T10:14:42.436Z,39.3896
2019-04-20T10:15:30.958Z,42.7985
2019-04-20T10:16:17.799Z,41.2924
2019-04-20T10:17:05.690Z,38.4131
2019-04-20T10:17:53.942Z,41.4267
2019-04-20T10:18:45.486Z,38.2528
2019-04-20T10:19:35.610Z,41.1917
2019-04-20T10:20:29.796Z,44.8173
2019-04-20T10:21:15.888Z,38.7060
2019-04-20T10:22:02.562Z,40.7217
2019-04-20T10:22:48.911Z,41.3260
2019-04-20T10:23:36.529Z,35.8846
2019-04-20T10:24:24.293Z,35.6832
2019-04-20T10:25:10.878Z,38.4863
2019-04-20T10:25:58.442Z,38.5245
2019-04-20T10:26:46.294Z,36.2936
2019-04-20T10:27:32.782Z,37.6669
2019-04-20T10:28:19.473Z,40.4822
2019-04-20T10:29:05.791Z,39.9115
2019-04-20T10:29:53.467Z,39.1424
2019-04-20T10:30:40.878Z,39.6628
2019-04-20T10:31:28.510Z,40.4089
2019-04-20T10:32:16.045Z,38.5550
2019-04-20T10:33:05.664Z,39.5575
2019-04-20T10:33:53.466Z,39.5758
2019-04-20T10:34:40.926Z,38.7945
2019-04-20T10:35:27.594Z,38.9303
2019-04-20T10:36:15.315Z,38.9578
2019-04-20T10:37:01.739Z,41.3199
2019-04-20T10:37:49.325Z,39.0692